Time;durP1;ratioP1;P1;durP2;ratioP2;P2;SDS_P1;SDS_P2;PMS_P1;PMS_P2;Temp;Humidity;BMP_temperature;BMP_pressure;BME280_temperature;BME280_humidity;BME280_pressure;Samples;Min_cycle;Max_cycle;Signal;HPM_P1;HPM_P2
2023/06/20 00:00:48;;;;;;;6.80;4.97;;;22.50;57.20;;;;;;5084944;28;20016;-69
2023/06/20 00:03:15;;;;;;;5.20;4.57;;;22.40;57.60;;;;;;5094209;28;20028;-70
2023/06/20 00:05:40;;;;;;;6.55;5.20;;;22.40;57.90;;;;;;5100967;28;20356;-68
2023/06/20 00:08:06;;;;;;;6.30;4.57;;;22.30;58.20;;;;;;5093600;28;20034;-70
2023/06/20 00:10:32;;;;;;;6.93;4.97;;;22.20;58.40;;;;;;5096726;28;20026;-69
2023/06/20 00:12:59;;;;;;;7.10;4.45;;;22.20;58.80;;;;;;5098675;28;20391;-69
2023/06/20 00:15:28;;;;;;;7.32;5.15;;;22.20;58.80;;;;;;5082201;28;20032;-68
2023/06/20 00:17:55;;;;;;;6.20;4.60;;;22.20;59.00;;;;;;5085063;28;20016;-69
2023/06/20 00:20:23;;;;;;;5.50;4.30;;;22.20;59.10;;;;;;5091410;28;20039;-68
2023/06/20 00:22:50;;;;;;;6.47;4.70;;;22.20;59.00;;;;;;5082198;28;20043;-69
2023/06/20 00:25:17;;;;;;;5.72;4.35;;;22.20;59.00;;;;;;5097840;28;20073;-69
2023/06/20 00:27:42;;;;;;;6.45;4.50;;;22.20;58.90;;;;;;5077327;28;20490;-70
2023/06/20 00:30:08;;;;;;;6.80;5.13;;;22.20;58.80;;;;;;5080294;28;20107;-67
2023/06/20 00:32:34;;;;;;;6.10;4.72;;;22.20;59.00;;;;;;5081050;28;20045;-68
2023/06/20 00:34:59;;;;;;;7.35;4.40;;;22.10;58.90;;;;;;5084241;28;20028;-67
2023/06/20 00:37:26;;;;;;;5.30;4.07;;;22.20;58.80;;;;;;5091004;28;20019;-66
2023/06/20 00:39:52;;;;;;;6.10;4.47;;;22.20;58.70;;;;;;5101039;28;20493;-67
2023/06/20 00:42:25;;;;;;;5.35;4.20;;;22.20;58.60;;;;;;5090014;28;20033;-67
2023/06/20 00:44:51;;;;;;;6.38;4.38;;;22.20;58.40;;;;;;5090197;28;20383;-68
2023/06/20 00:47:18;;;;;;;6.03;3.90;;;22.30;58.30;;;;;;5097382;28;20394;-68
2023/06/20 00:49:46;;;;;;;5.90;4.68;;;22.30;58.20;;;;;;5082664;28;20455;-67
2023/06/20 00:52:23;;;;;;;5.80;4.20;;;22.30;58.10;;;;;;5092118;28;20020;-67
2023/06/20 00:54:49;;;;;;;5.97;4.47;;;22.30;57.90;;;;;;5094336;28;20016;-68
2023/06/20 00:57:17;;;;;;;6.13;4.30;;;22.30;57.70;;;;;;5091567;28;20050;-67
2023/06/20 00:59:44;;;;;;;6.50;5.18;;;22.40;57.70;;;;;;5105925;28;20062;-68
2023/06/20 01:02:10;;;;;;;5.95;4.43;;;22.30;58.40;;;;;;5083137;28;20427;-67
2023/06/20 01:04:39;;;;;;;5.70;4.50;;;22.30;57.80;;;;;;5097253;28;20016;-67
2023/06/20 01:07:18;;;;;;;6.10;4.30;;;22.30;57.70;;;;;;5094076;28;20112;-67
2023/06/20 01:10:22;;;;;;;4.72;4.20;;;22.40;57.60;;;;;;5095825;28;20433;-67
2023/06/20 01:12:59;;;;;;;5.72;4.50;;;22.40;57.50;;;;;;5059074;28;20112;-66
2023/06/20 01:15:35;;;;;;;5.97;4.18;;;22.40;57.40;;;;;;5077379;28;20035;-67
2023/06/20 01:18:43;;;;;;;5.03;4.15;;;22.40;57.30;;;;;;5081777;28;20021;-67
2023/06/20 01:21:17;;;;;;;5.38;4.10;;;22.50;57.30;;;;;;5096202;28;20032;-68
2023/06/20 01:24:00;;;;;;;6.80;4.47;;;22.40;57.20;;;;;;5088539;28;20360;-68
2023/06/20 01:26:45;;;;;;;6.63;4.72;;;22.40;57.20;;;;;;5085151;28;20020;-67
2023/06/20 01:29:44;;;;;;;6.45;4.70;;;22.40;57.40;;;;;;5074976;28;20387;-67
2023/06/20 01:32:15;;;;;;;6.97;5.15;;;22.40;57.60;;;;;;5085181;28;20033;-68
2023/06/20 01:34:48;;;;;;;7.85;5.10;;;22.30;57.60;;;;;;5094743;28;20043;-67
2023/06/20 01:37:17;;;;;;;6.65;4.63;;;22.30;57.70;;;;;;5079289;28;20032;-67
2023/06/20 01:39:47;;;;;;;6.63;4.55;;;22.30;57.80;;;;;;5099842;28;20028;-68
2023/06/20 01:42:15;;;;;;;6.80;5.00;;;22.40;57.70;;;;;;5088224;28;20059;-67
2023/06/20 01:44:41;;;;;;;5.65;5.05;;;22.40;57.80;;;;;;5079280;28;20414;-68
2023/06/20 01:47:09;;;;;;;7.88;5.10;;;22.40;57.90;;;;;;5097535;28;20412;-67
2023/06/20 01:49:36;;;;;;;5.40;4.57;;;22.40;57.80;;;;;;5086531;28;20432;-67
2023/06/20 01:52:04;;;;;;;7.15;4.70;;;22.40;57.80;;;;;;5098765;28;20039;-67
2023/06/20 01:54:31;;;;;;;5.40;4.40;;;22.50;57.80;;;;;;5101201;28;20364;-68
2023/06/20 01:56:58;;;;;;;5.80;5.03;;;22.50;57.80;;;;;;5093525;28;20023;-68
2023/06/20 01:59:26;;;;;;;5.90;4.53;;;22.50;57.60;;;;;;5091820;28;20519;-68
2023/06/20 02:01:53;;;;;;;6.30;4.97;;;22.50;57.70;;;;;;5103156;28;20028;-68
2023/06/20 02:04:20;;;;;;;6.38;4.80;;;22.50;57.70;;;;;;5080673;28;20572;-68
2023/06/20 02:06:49;;;;;;;5.47;4.47;;;22.60;57.80;;;;;;5084543;28;20160;-67
2023/06/20 02:09:16;;;;;;;5.57;4.30;;;22.50;57.90;;;;;;5086851;28;20157;-66
2023/06/20 02:11:43;;;;;;;9.45;4.75;;;22.50;57.90;;;;;;5103877;28;20474;-66
2023/06/20 02:14:10;;;;;;;5.50;4.75;;;22.50;58.20;;;;;;5089837;28;20105;-66
2023/06/20 02:16:36;;;;;;;4.95;4.38;;;22.50;58.00;;;;;;5074451;28;20016;-67
2023/06/20 02:19:03;;;;;;;6.93;5.00;;;22.50;58.00;;;;;;5078098;28;20043;-66
2023/06/20 02:21:32;;;;;;;6.10;4.60;;;22.50;58.20;;;;;;5093208;28;20035;-67
2023/06/20 02:23:59;;;;;;;6.03;4.53;;;22.50;58.10;;;;;;5093606;28;20039;-67
2023/06/20 02:26:31;;;;;;;6.55;5.43;;;22.50;58.10;;;;;;5095028;28;20051;-67
2023/06/20 02:29:01;;;;;;;;;;;22.50;58.30;;;;;;5079788;28;20036;-66
2023/06/20 02:31:30;;;;;;;5.43;4.30;;;22.40;58.20;;;;;;5083985;28;19908;-67
2023/06/20 02:33:58;;;;;;;6.68;4.55;;;22.50;58.20;;;;;;5097518;28;20036;-67
2023/06/20 02:36:27;;;;;;;6.65;4.40;;;22.50;58.20;;;;;;5093682;28;20067;-67
2023/06/20 02:38:53;;;;;;;6.60;5.30;;;22.50;58.20;;;;;;5091195;28;20077;-67
2023/06/20 02:41:22;;;;;;;6.55;4.80;;;22.40;58.60;;;;;;5072388;28;20040;-67
2023/06/20 02:43:48;;;;;;;5.72;4.78;;;22.50;58.60;;;;;;5073658;28;20510;-67
2023/06/20 02:46:25;;;;;;;6.18;4.72;;;22.50;58.40;;;;;;5107955;28;20024;-67
2023/06/20 02:49:09;;;;;;;5.25;4.57;;;22.50;58.40;;;;;;5088286;28;20028;-67
2023/06/20 02:51:41;;;;;;;6.45;4.75;;;22.50;58.50;;;;;;5072373;28;20479;-67
2023/06/20 02:54:23;;;;;;;5.82;5.22;;;22.50;58.60;;;;;;5079181;28;20107;-67
2023/06/20 02:56:54;;;;;;;6.03;4.90;;;22.50;58.80;;;;;;5081143;28;20038;-66
2023/06/20 02:59:24;;;;;;;;;;;22.40;58.70;;;;;;5096373;28;20037;-66
2023/06/20 03:01:56;;;;;;;6.10;5.07;;;22.40;58.90;;;;;;5078042;28;19955;-66
2023/06/20 03:04:22;;;;;;;7.68;5.20;;;22.40;59.00;;;;;;5078030;28;20020;-67
2023/06/20 03:06:51;;;;;;;7.10;5.63;;;22.40;59.10;;;;;;5092760;28;20522;-66
2023/06/20 03:09:17;;;;;;;9.20;7.47;;;22.30;59.50;;;;;;5086576;28;20083;-66
2023/06/20 03:11:43;;;;;;;8.60;6.72;;;22.30;59.70;;;;;;5093473;28;20028;-66
2023/06/20 03:14:13;;;;;;;7.97;6.40;;;22.30;59.90;;;;;;5084988;28;20178;-66
2023/06/20 03:16:41;;;;;;;6.50;5.40;;;22.30;60.10;;;;;;5082387;28;20020;-66
2023/06/20 03:19:09;;;;;;;6.65;5.95;;;22.30;60.20;;;;;;5090837;28;20024;-66
2023/06/20 03:21:34;;;;;;;8.52;5.80;;;22.40;60.10;;;;;;5093039;28;20027;-66
2023/06/20 03:24:00;;;;;;;5.85;5.10;;;22.30;60.10;;;;;;5092578;28;20024;-66
2023/06/20 03:26:25;;;;;;;6.43;4.80;;;22.40;60.00;;;;;;5087836;28;20028;-68
2023/06/20 03:28:51;;;;;;;7.97;6.03;;;22.40;59.80;;;;;;5088494;28;20024;-68
2023/06/20 03:31:16;;;;;;;6.32;5.25;;;22.40;60.10;;;;;;5079750;28;20024;-68
2023/06/20 03:33:42;;;;;;;7.03;6.10;;;22.40;60.20;;;;;;5088640;28;20046;-68
2023/06/20 03:36:09;;;;;;;6.78;5.20;;;22.30;60.40;;;;;;5091374;28;20030;-68
2023/06/20 03:38:35;;;;;;;9.15;7.43;;;22.30;60.30;;;;;;5071159;28;20081;-69
2023/06/20 03:41:01;;;;;;;8.45;6.70;;;22.30;60.40;;;;;;5077427;28;20032;-68
2023/06/20 03:43:26;;;;;;;7.32;5.90;;;22.30;60.60;;;;;;5074146;28;20021;-67
2023/06/20 03:45:52;;;;;;;7.13;5.95;;;22.30;60.70;;;;;;5088675;28;20024;-67
2023/06/20 03:48:19;;;;;;;8.88;5.80;;;22.20;60.80;;;;;;5084155;28;20020;-67
2023/06/20 03:50:45;;;;;;;6.47;5.00;;;22.20;60.80;;;;;;5101348;28;20072;-67
2023/06/20 03:53:10;;;;;;;5.95;4.90;;;22.30;60.70;;;;;;5098483;28;20091;-67
2023/06/20 03:55:36;;;;;;;7.28;5.22;;;22.30;60.50;;;;;;5075731;28;20033;-67
2023/06/20 03:58:01;;;;;;;6.00;5.40;;;22.30;60.70;;;;;;5100987;28;20032;-67
2023/06/20 04:00:27;;;;;;;7.25;5.80;;;22.30;60.50;;;;;;5084427;28;20028;-67
2023/06/20 04:02:53;;;;;;;6.57;4.95;;;22.30;60.90;;;;;;5072194;28;20021;-67
2023/06/20 04:05:18;;;;;;;6.95;5.22;;;22.30;60.60;;;;;;5083112;28;20020;-67
2023/06/20 04:07:44;;;;;;;7.30;5.65;;;22.40;60.50;;;;;;5079622;28;20024;-67
2023/06/20 04:10:13;;;;;;;8.45;5.70;;;22.30;60.70;;;;;;5093728;28;20097;-67
2023/06/20 04:12:40;;;;;;;5.90;5.00;;;22.30;61.40;;;;;;5104665;28;20023;-67
2023/06/20 04:15:06;;;;;;;7.40;4.97;;;22.30;60.70;;;;;;5087341;28;20032;-66
2023/06/20 04:17:31;;;;;;;8.30;5.38;;;22.30;60.60;;;;;;5097799;28;20024;-67
2023/06/20 04:19:59;;;;;;;8.05;5.90;;;22.40;60.50;;;;;;5101125;28;20148;-66
2023/06/20 04:22:28;;;;;;;7.28;6.18;;;22.30;60.70;;;;;;5070469;28;20090;-66
2023/06/20 04:24:54;;;;;;;7.45;5.88;;;22.30;60.80;;;;;;5069777;28;20066;-66
2023/06/20 04:27:19;;;;;;;7.47;5.53;;;22.30;61.10;;;;;;5090882;28;20024;-66
2023/06/20 04:29:45;;;;;;;8.63;6.78;;;22.20;61.10;;;;;;5090294;28;20511;-66
2023/06/20 04:32:10;;;;;;;9.05;6.78;;;22.30;61.30;;;;;;5088325;28;20029;-66
2023/06/20 04:34:36;;;;;;;8.63;6.63;;;22.20;61.80;;;;;;5085868;28;20081;-67
2023/06/20 04:37:01;;;;;;;7.88;6.95;;;22.10;62.10;;;;;;5094395;28;20032;-67
2023/06/20 04:39:29;;;;;;;8.65;7.03;;;22.00;62.40;;;;;;5101943;28;20155;-67
2023/06/20 04:41:55;;;;;;;7.65;6.85;;;22.00;62.50;;;;;;5102096;28;20478;-66
2023/06/20 04:44:20;;;;;;;8.40;7.32;;;22.00;62.70;;;;;;5077334;28;20092;-67
2023/06/20 04:46:46;;;;;;;10.38;7.75;;;22.00;62.60;;;;;;5084065;28;20031;-68
2023/06/20 04:49:11;;;;;;;11.98;7.70;;;21.90;62.80;;;;;;5094954;28;20032;-66
2023/06/20 04:51:40;;;;;;;8.85;7.63;;;21.90;63.00;;;;;;5098959;28;20024;-66
2023/06/20 04:54:07;;;;;;;9.18;7.00;;;21.90;63.10;;;;;;5091253;28;20017;-66
2023/06/20 04:56:40;;;;;;;9.93;8.23;;;22.00;62.90;;;;;;5091277;28;20050;-66
2023/06/20 04:59:06;;;;;;;9.77;8.50;;;22.00;62.80;;;;;;5086481;28;20028;-66
2023/06/20 05:01:32;;;;;;;8.15;6.70;;;22.00;62.80;;;;;;5095529;28;20020;-66
2023/06/20 05:03:58;;;;;;;9.50;7.93;;;22.10;62.60;;;;;;5096549;28;20027;-66
2023/06/20 05:06:23;;;;;;;10.38;8.23;;;22.10;62.80;;;;;;5073538;28;20452;-66
2023/06/20 05:08:49;;;;;;;10.63;8.32;;;22.10;62.90;;;;;;5087776;28;20487;-66
2023/06/20 05:11:14;;;;;;;9.95;8.05;;;22.10;62.90;;;;;;5090979;28;20028;-66
2023/06/20 05:13:40;;;;;;;8.98;8.07;;;22.10;63.70;;;;;;5076149;28;20053;-67
2023/06/20 05:16:05;;;;;;;10.77;8.02;;;22.10;63.10;;;;;;5089474;28;20028;-66
2023/06/20 05:18:32;;;;;;;9.80;7.43;;;22.10;63.00;;;;;;5086309;28;20024;-66
2023/06/20 05:20:57;;;;;;;9.73;7.88;;;22.20;62.90;;;;;;5094666;28;20036;-66
2023/06/20 05:23:26;;;;;;;9.25;8.02;;;22.10;63.00;;;;;;5073845;28;20038;-67
2023/06/20 05:25:52;;;;;;;9.05;7.13;;;22.10;63.10;;;;;;5084123;28;20016;-67
2023/06/20 05:28:17;;;;;;;8.07;7.28;;;22.20;63.00;;;;;;5096327;28;20021;-66
2023/06/20 05:30:43;;;;;;;9.35;8.35;;;22.20;63.10;;;;;;5076129;28;20060;-66
2023/06/20 05:33:08;;;;;;;8.52;7.53;;;22.20;63.30;;;;;;5085881;28;20097;-66
2023/06/20 05:35:34;;;;;;;9.10;7.68;;;22.20;63.20;;;;;;5086705;28;20063;-66
2023/06/20 05:38:00;;;;;;;7.45;6.65;;;22.20;63.10;;;;;;5083684;28;20031;-67
2023/06/20 05:40:26;;;;;;;9.35;7.78;;;22.30;63.10;;;;;;5082235;28;20062;-67
2023/06/20 05:42:51;;;;;;;9.35;8.35;;;22.30;63.20;;;;;;5091427;28;20020;-66
2023/06/20 05:45:17;;;;;;;12.13;9.82;;;22.20;63.40;;;;;;5089629;28;20092;-67
2023/06/20 05:47:45;;;;;;;9.35;8.40;;;22.20;63.40;;;;;;5079777;28;20514;-67
2023/06/20 05:50:11;;;;;;;7.18;6.45;;;22.20;63.60;;;;;;5087521;28;20028;-67
2023/06/20 05:52:37;;;;;;;11.13;8.23;;;22.30;63.60;;;;;;5087413;28;20417;-67
2023/06/20 05:55:03;;;;;;;11.52;8.85;;;22.30;63.80;;;;;;5094155;28;20538;-67
2023/06/20 05:57:29;;;;;;;9.18;7.80;;;22.20;64.10;;;;;;5076551;28;20016;-67
2023/06/20 05:59:54;;;;;;;9.45;7.82;;;22.20;64.10;;;;;;5093254;28;20378;-66
2023/06/20 06:02:22;;;;;;;8.77;7.68;;;22.20;64.10;;;;;;5097860;28;20020;-67
2023/06/20 06:04:48;;;;;;;10.35;8.40;;;22.20;64.20;;;;;;5084385;28;20095;-67
2023/06/20 06:07:14;;;;;;;9.00;8.00;;;22.30;64.30;;;;;;5092680;28;20025;-67
2023/06/20 06:09:40;;;;;;;9.57;8.57;;;22.30;64.10;;;;;;5105291;28;20019;-67
2023/06/20 06:12:06;;;;;;;10.00;8.35;;;22.40;64.10;;;;;;5097399;28;20490;-67
2023/06/20 06:14:32;;;;;;;9.35;7.05;;;22.50;64.00;;;;;;5092434;28;20050;-69
2023/06/20 06:16:57;;;;;;;11.45;8.90;;;22.70;63.60;;;;;;5095572;28;20064;-67
2023/06/20 06:19:23;;;;;;;12.25;9.13;;;23.00;63.20;;;;;;5094972;28;20036;-67
2023/06/20 06:21:48;;;;;;;9.05;8.15;;;23.10;63.00;;;;;;5092782;28;20025;-70
2023/06/20 06:24:14;;;;;;;8.52;7.60;;;23.40;62.60;;;;;;5076060;28;20031;-68
2023/06/20 06:26:39;;;;;;;9.77;8.75;;;23.60;62.00;;;;;;5087195;28;20095;-69
2023/06/20 06:29:05;;;;;;;10.30;9.20;;;23.70;61.70;;;;;;5083824;28;20032;-69
2023/06/20 06:31:34;;;;;;;10.65;9.25;;;23.70;61.60;;;;;;5086930;28;20051;-70
2023/06/20 06:34:02;;;;;;;12.55;9.68;;;23.70;61.80;;;;;;5087675;27;20499;-69
2023/06/20 06:36:32;;;;;;;10.15;9.00;;;23.70;61.90;;;;;;5088005;28;20056;-69
2023/06/20 06:38:59;;;;;;;11.00;9.27;;;23.80;62.00;;;;;;5089524;28;20132;-68
2023/06/20 06:41:25;;;;;;;10.70;9.15;;;24.10;61.50;;;;;;5102343;28;20042;-67
2023/06/20 06:43:50;;;;;;;9.88;8.88;;;24.30;61.20;;;;;;5111428;28;20386;-67
2023/06/20 06:46:16;;;;;;;11.52;8.73;;;24.40;60.80;;;;;;5095737;28;20024;-68
2023/06/20 06:48:41;;;;;;;11.00;9.55;;;24.50;60.50;;;;;;5107052;28;20370;-69
2023/06/20 06:51:07;;;;;;;10.45;9.32;;;24.40;60.40;;;;;;5085811;28;20029;-68
2023/06/20 06:53:33;;;;;;;9.73;8.45;;;24.30;60.80;;;;;;5085214;28;20020;-67
2023/06/20 06:55:58;;;;;;;9.60;8.63;;;24.30;60.90;;;;;;5082277;28;20122;-67
2023/06/20 06:58:24;;;;;;;9.20;7.30;;;24.40;60.80;;;;;;5090783;28;20078;-68
2023/06/20 07:00:50;;;;;;;8.43;7.50;;;24.50;60.60;;;;;;5079146;28;20085;-68
2023/06/20 07:03:15;;;;;;;11.93;10.18;;;24.60;60.30;;;;;;5082155;28;20031;-68
2023/06/20 07:05:41;;;;;;;10.70;9.52;;;24.60;60.50;;;;;;5092743;28;20050;-68
2023/06/20 07:08:07;;;;;;;10.85;8.82;;;24.70;60.40;;;;;;5091975;28;20109;-68
2023/06/20 07:10:33;;;;;;;10.18;8.85;;;24.80;60.20;;;;;;5081708;28;20042;-68
2023/06/20 07:12:58;;;;;;;8.45;7.60;;;25.00;60.00;;;;;;5086176;28;20447;-68
2023/06/20 07:15:24;;;;;;;12.68;10.05;;;25.20;59.70;;;;;;5080183;28;20028;-68
2023/06/20 07:17:50;;;;;;;11.13;9.95;;;25.20;59.40;;;;;;5095082;28;20028;-68
2023/06/20 07:20:17;;;;;;;11.48;10.27;;;25.20;59.30;;;;;;5091824;28;20670;-68
2023/06/20 07:22:44;;;;;;;12.48;9.43;;;25.20;59.40;;;;;;5089242;28;20030;-68
2023/06/20 07:25:10;;;;;;;9.75;8.75;;;25.20;59.60;;;;;;5071674;28;20020;-68
2023/06/20 07:27:36;;;;;;;10.60;8.40;;;25.30;59.50;;;;;;5073169;28;20085;-68
2023/06/20 07:30:01;;;;;;;8.25;7.45;;;25.30;59.40;;;;;;5078431;28;20077;-68
2023/06/20 07:32:27;;;;;;;9.93;8.95;;;25.40;59.50;;;;;;5095262;28;20054;-68
2023/06/20 07:34:52;;;;;;;10.50;8.52;;;25.50;59.30;;;;;;5091224;28;20056;-69
2023/06/20 07:37:18;;;;;;;8.13;7.32;;;25.50;59.30;;;;;;5090324;28;20024;-69
2023/06/20 07:39:46;;;;;;;7.25;6.50;;;25.70;59.10;;;;;;5086140;28;20028;-69
2023/06/20 07:42:12;;;;;;;9.70;8.70;;;25.90;58.90;;;;;;5088411;28;20032;-69
2023/06/20 07:44:38;;;;;;;8.48;7.57;;;26.00;58.70;;;;;;5100268;28;20161;-69
2023/06/20 07:47:04;;;;;;;8.75;7.72;;;26.10;58.60;;;;;;5089486;28;20545;-69
2023/06/20 07:49:29;;;;;;;9.82;7.50;;;26.30;58.60;;;;;;5102295;28;20106;-69
2023/06/20 07:51:55;;;;;;;8.85;7.80;;;26.40;58.20;;;;;;5091239;28;20073;-69
2023/06/20 07:54:21;;;;;;;9.45;8.30;;;26.80;57.80;;;;;;5082229;28;20031;-69
2023/06/20 07:56:47;;;;;;;9.63;8.40;;;26.90;57.30;;;;;;5085556;28;20505;-69
2023/06/20 07:59:13;;;;;;;7.50;6.22;;;26.70;57.40;;;;;;5084272;28;20032;-67
2023/06/20 08:01:38;;;;;;;8.27;7.45;;;26.70;57.70;;;;;;5087327;28;20425;-68
2023/06/20 08:04:04;;;;;;;9.75;8.25;;;26.70;57.90;;;;;;5084554;28;20620;-68
2023/06/20 08:06:30;;;;;;;11.45;8.70;;;26.80;57.80;;;;;;5081697;28;20028;-68
2023/06/20 08:08:55;;;;;;;9.23;7.47;;;26.80;57.60;;;;;;5093314;28;20448;-68
2023/06/20 08:11:22;;;;;;;9.27;7.90;;;26.90;57.80;;;;;;5100963;28;20084;-68
2023/06/20 08:13:47;;;;;;;9.43;7.88;;;27.10;57.60;;;;;;5100959;28;20012;-69
2023/06/20 08:16:13;;;;;;;8.50;7.50;;;27.10;57.60;;;;;;5107691;28;20023;-68
2023/06/20 08:18:38;;;;;;;8.57;7.72;;;27.00;57.70;;;;;;5089474;28;20478;-68
2023/06/20 08:21:04;;;;;;;6.82;6.13;;;27.10;57.90;;;;;;5078248;28;20673;-68
2023/06/20 08:23:29;;;;;;;6.90;6.20;;;27.30;57.70;;;;;;5070367;28;20029;-68
2023/06/20 08:25:55;;;;;;;7.00;5.90;;;27.50;57.40;;;;;;5069579;28;20043;-68
2023/06/20 08:28:24;;;;;;;9.90;6.65;;;27.60;57.00;;;;;;5095126;28;20027;-68
2023/06/20 08:30:51;;;;;;;7.47;5.60;;;27.60;56.70;;;;;;5087111;28;20371;-68
2023/06/20 08:33:17;;;;;;;9.25;5.60;;;27.60;56.70;;;;;;5079847;28;20031;-68
2023/06/20 08:35:43;;;;;;;6.50;5.43;;;27.60;56.60;;;;;;5096286;28;20016;-68
2023/06/20 08:38:09;;;;;;;6.30;4.70;;;27.80;56.60;;;;;;5098764;28;20035;-68
2023/06/20 08:40:35;;;;;;;8.68;6.05;;;27.80;56.40;;;;;;5100899;28;20364;-68
2023/06/20 08:43:01;;;;;;;6.90;5.60;;;27.80;55.90;;;;;;5093696;28;20441;-68
2023/06/20 08:45:27;;;;;;;7.43;5.57;;;27.80;56.20;;;;;;5088418;28;20020;-68
2023/06/20 08:47:58;;;;;;;8.20;5.35;;;27.90;55.60;;;;;;5083829;28;20491;-68
2023/06/20 08:50:27;;;;;;;6.10;4.82;;;27.90;55.90;;;;;;5090990;28;20036;-68
2023/06/20 08:52:54;;;;;;;4.95;4.45;;;28.00;55.60;;;;;;5084640;28;20085;-68
2023/06/20 08:55:21;;;;;;;4.63;4.22;;;28.20;55.50;;;;;;5089229;28;20024;-68
2023/06/20 08:57:46;;;;;;;5.38;4.65;;;28.40;55.00;;;;;;5084414;28;20035;-68
2023/06/20 09:00:23;;;;;;;4.68;4.13;;;28.40;54.30;;;;;;5092246;28;20470;-68
2023/06/20 09:02:52;;;;;;;4.72;3.92;;;28.40;54.10;;;;;;5079865;28;20462;-68
2023/06/20 09:05:18;;;;;;;4.93;4.38;;;28.60;54.30;;;;;;5097937;28;20020;-68
2023/06/20 09:07:44;;;;;;;5.57;4.15;;;28.60;53.80;;;;;;5083269;28;20024;-68
2023/06/20 09:10:14;;;;;;;5.07;4.57;;;28.60;53.80;;;;;;5090875;28;20024;-68
2023/06/20 09:12:54;;;;;;;4.65;4.07;;;28.60;53.00;;;;;;5083906;28;20932;-68
2023/06/20 09:15:27;;;;;;;4.80;4.30;;;28.60;52.90;;;;;;5086476;28;20036;-68
2023/06/20 09:17:54;;;;;;;6.30;4.68;;;28.60;52.80;;;;;;5091050;28;20020;-68
2023/06/20 09:20:20;;;;;;;5.75;4.93;;;28.50;53.00;;;;;;5098514;28;20032;-68
2023/06/20 09:22:46;;;;;;;7.40;5.40;;;28.60;53.30;;;;;;5098593;28;20024;-68
2023/06/20 09:25:18;;;;;;;5.90;5.10;;;28.60;53.40;;;;;;5089669;28;20414;-68
2023/06/20 09:27:44;;;;;;;5.57;4.50;;;28.60;53.60;;;;;;5090326;28;20070;-68
2023/06/20 09:30:10;;;;;;;5.82;5.22;;;28.60;53.50;;;;;;5091728;28;20036;-68
2023/06/20 09:32:39;;;;;;;5.22;4.72;;;28.70;53.60;;;;;;5088416;28;20073;-68
2023/06/20 09:35:10;;;;;;;6.10;5.10;;;28.70;53.60;;;;;;5090749;28;20029;-68
2023/06/20 09:37:36;;;;;;;5.85;4.88;;;28.80;53.80;;;;;;5091396;28;20043;-68
2023/06/20 09:40:08;;;;;;;6.35;4.90;;;28.90;53.60;;;;;;5090950;28;20486;-68
2023/06/20 09:42:34;;;;;;;6.60;5.07;;;28.90;53.40;;;;;;5088912;28;20039;-68
2023/06/20 09:44:59;;;;;;;6.05;4.60;;;28.90;53.80;;;;;;5085265;28;20036;-68
2023/06/20 09:47:25;;;;;;;6.45;5.32;;;28.90;53.80;;;;;;5089620;28;20510;-68
2023/06/20 09:49:57;;;;;;;4.65;4.10;;;29.00;53.90;;;;;;5094644;28;20050;-68
2023/06/20 09:52:32;;;;;;;6.35;4.70;;;29.20;53.70;;;;;;5095782;28;20428;-68
2023/06/20 09:55:03;;;;;;;6.13;5.28;;;29.40;53.30;;;;;;5105842;28;20032;-68
2023/06/20 09:57:43;;;;;;;5.05;4.25;;;29.50;52.90;;;;;;5084305;28;20058;-68
2023/06/20 10:00:14;;;;;;;6.35;5.70;;;29.50;52.90;;;;;;5092967;28;20035;-68
2023/06/20 10:02:46;;;;;;;5.20;4.32;;;29.60;52.80;;;;;;5092781;28;20050;-68
2023/06/20 10:05:19;;;;;;;6.05;4.90;;;29.70;52.80;;;;;;5088529;28;20057;-68
2023/06/20 10:07:46;;;;;;;6.80;5.85;;;29.90;52.50;;;;;;5092925;28;20020;-68
2023/06/20 10:10:13;;;;;;;6.80;5.88;;;29.90;52.40;;;;;;5092574;28;20023;-68
2023/06/20 10:12:40;;;;;;;6.65;4.65;;;29.80;52.10;;;;;;5099388;28;20024;-68
2023/06/20 10:15:07;;;;;;;4.65;4.18;;;29.80;52.20;;;;;;5102124;28;20760;-68
2023/06/20 10:17:38;;;;;;;7.70;5.10;;;29.70;52.10;;;;;;5093980;28;20032;-68
2023/06/20 10:20:07;;;;;;;5.03;4.37;;;29.70;52.30;;;;;;5091796;28;20431;-68
2023/06/20 10:22:43;;;;;;;4.65;4.15;;;29.70;52.30;;;;;;5099677;28;20792;-68
2023/06/20 10:25:15;;;;;;;4.80;4.25;;;29.60;52.30;;;;;;5093611;28;20078;-68
2023/06/20 10:27:44;;;;;;;6.38;4.32;;;29.90;52.60;;;;;;5077946;28;20028;-68
2023/06/20 10:30:12;;;;;;;4.63;4.10;;;29.90;52.50;;;;;;5090915;28;20020;-68
2023/06/20 10:33:10;;;;;;;5.15;4.50;;;30.10;52.30;;;;;;5102970;28;20068;-68
2023/06/20 10:35:52;;;;;;;3.97;3.47;;;30.10;51.50;;;;;;5092432;28;20036;-68
2023/06/20 10:38:18;;;;;;;4.53;3.90;;;30.20;51.80;;;;;;5101617;28;20429;-68
2023/06/20 10:40:45;;;;;;;5.05;3.90;;;30.20;51.50;;;;;;5092658;27;20078;-68
2023/06/20 10:43:18;;;;;;;5.00;3.70;;;30.10;51.30;;;;;;5100309;28;20039;-68
2023/06/20 10:46:00;;;;;;;4.30;3.90;;;30.20;51.50;;;;;;5090616;28;20016;-68
2023/06/20 10:48:29;;;;;;;4.70;3.50;;;30.20;50.90;;;;;;5088342;28;20024;-68
2023/06/20 10:51:01;;;;;;;3.50;3.10;;;30.20;51.30;;;;;;5092081;28;20030;-68
2023/06/20 10:53:27;;;;;;;5.57;3.50;;;30.30;51.20;;;;;;5089874;28;20024;-68
2023/06/20 10:55:53;;;;;;;6.25;3.53;;;30.30;51.00;;;;;;5091927;28;20020;-68
2023/06/20 10:58:18;;;;;;;4.60;3.83;;;30.20;51.30;;;;;;5102880;28;20031;-68
2023/06/20 11:00:44;;;;;;;4.45;3.50;;;30.30;50.90;;;;;;5103529;28;20024;-68
2023/06/20 11:03:10;;;;;;;4.10;3.30;;;30.20;51.10;;;;;;5090596;28;20035;-68
2023/06/20 11:05:36;;;;;;;4.20;3.80;;;30.20;51.40;;;;;;5093275;28;20020;-68
2023/06/20 11:08:05;;;;;;;3.85;3.35;;;30.20;51.20;;;;;;5091935;28;20112;-68
2023/06/20 11:10:31;;;;;;;3.97;3.00;;;30.40;51.20;;;;;;5099376;28;20294;-68
2023/06/20 11:12:59;;;;;;;3.60;3.10;;;30.60;50.70;;;;;;5092079;28;20082;-68
2023/06/20 11:15:32;;;;;;;4.35;3.58;;;30.60;50.40;;;;;;5099752;28;20020;-68
2023/06/20 11:18:01;;;;;;;5.50;3.28;;;30.30;50.40;;;;;;5094288;28;20020;-68
2023/06/20 11:20:27;;;;;;;3.60;3.30;;;30.50;50.70;;;;;;5089724;28;20107;-68
2023/06/20 11:22:55;;;;;;;4.00;3.10;;;30.60;50.30;;;;;;5102218;28;20095;-68
2023/06/20 11:25:23;;;;;;;2.88;2.67;;;30.80;49.80;;;;;;5091440;28;20059;-68
2023/06/20 11:27:49;;;;;;;3.83;3.20;;;30.70;49.60;;;;;;5096467;28;20582;-68
2023/06/20 11:30:15;;;;;;;3.88;2.88;;;31.00;49.50;;;;;;5089613;28;20115;-68
2023/06/20 11:32:40;;;;;;;3.20;2.50;;;31.20;49.10;;;;;;5100399;28;20024;-68
2023/06/20 11:35:08;;;;;;;3.08;2.80;;;31.20;48.60;;;;;;5084493;28;20368;-68
2023/06/20 11:37:34;;;;;;;4.43;2.53;;;31.10;48.50;;;;;;5094521;28;20034;-68
2023/06/20 11:40:00;;;;;;;3.28;2.60;;;31.20;48.60;;;;;;5081976;28;20033;-68
2023/06/20 11:42:32;;;;;;;3.03;2.33;;;31.30;48.60;;;;;;5083159;28;20032;-68
2023/06/20 11:45:10;;;;;;;2.95;2.30;;;31.60;48.20;;;;;;5086437;28;20085;-68
2023/06/20 11:47:36;;;;;;;3.88;2.60;;;31.90;47.60;;;;;;5096942;28;20035;-68
2023/06/20 11:50:01;;;;;;;4.68;2.65;;;31.80;47.50;;;;;;5082972;28;20025;-68
2023/06/20 11:52:31;;;;;;;4.22;2.75;;;31.70;47.60;;;;;;5090667;28;20024;-68
2023/06/20 11:54:58;;;;;;;4.07;2.50;;;31.60;47.40;;;;;;5083783;28;20024;-68
2023/06/20 11:57:28;;;;;;;3.10;2.60;;;31.60;47.40;;;;;;5093278;28;20016;-68
2023/06/20 12:00:14;;;;;;;3.22;2.70;;;31.70;47.60;;;;;;5099628;28;20016;-67
2023/06/20 12:02:40;;;;;;;3.17;2.70;;;31.70;47.20;;;;;;5083241;28;20490;-67
2023/06/20 12:05:05;;;;;;;4.50;2.70;;;31.80;47.00;;;;;;5072320;28;20027;-67
2023/06/20 12:07:47;;;;;;;2.72;2.53;;;31.70;47.20;;;;;;5092118;28;20020;-67
2023/06/20 12:10:13;;;;;;;4.40;2.63;;;31.70;46.90;;;;;;5090494;28;20023;-67
2023/06/20 12:12:42;;;;;;;2.53;2.22;;;31.90;47.00;;;;;;5100707;28;20032;-67
2023/06/20 12:15:09;;;;;;;2.50;2.30;;;32.20;46.70;;;;;;5096318;28;20027;-68
2023/06/20 12:17:35;;;;;;;2.47;2.20;;;32.20;46.10;;;;;;5094928;28;20019;-68
2023/06/20 12:20:00;;;;;;;7.93;2.80;;;32.30;46.40;;;;;;5089977;28;20385;-68
2023/06/20 12:22:28;;;;;;;2.55;2.35;;;32.30;45.70;;;;;;5094290;28;20516;-68
2023/06/20 12:24:54;;;;;;;2.95;2.60;;;32.30;46.00;;;;;;5089957;28;20095;-68
2023/06/20 12:27:20;;;;;;;2.97;2.50;;;32.40;45.90;;;;;;5088734;28;20435;-68
2023/06/20 12:29:46;;;;;;;2.78;2.40;;;32.30;46.00;;;;;;5093946;28;20034;-68
2023/06/20 12:32:11;;;;;;;3.38;2.70;;;32.50;45.30;;;;;;5091334;28;20119;-68
2023/06/20 12:34:37;;;;;;;2.97;2.35;;;32.50;45.20;;;;;;5090401;28;20028;-68
2023/06/20 12:37:02;;;;;;;3.60;2.33;;;32.70;45.20;;;;;;5098200;28;20027;-68
2023/06/20 12:39:28;;;;;;;3.28;2.47;;;32.70;45.10;;;;;;5096359;28;20068;-68
2023/06/20 12:41:53;;;;;;;3.17;2.63;;;32.80;45.00;;;;;;5109416;28;20081;-68
2023/06/20 12:44:19;;;;;;;3.75;2.42;;;32.80;45.10;;;;;;5090748;28;20089;-68
2023/06/20 12:46:45;;;;;;;3.70;2.33;;;33.00;45.10;;;;;;5091800;28;20024;-68
2023/06/20 12:49:10;;;;;;;3.70;2.35;;;33.00;44.90;;;;;;5090804;28;20020;-68